Time;durP1;ratioP1;P1;durP2;ratioP2;P2;SDS_P1;SDS_P2;PMS_P1;PMS_P2;Temp;Humidity;BMP_temperature;BMP_pressure;BME280_temperature;BME280_humidity;BME280_pressure;Samples;Min_cycle;Max_cycle;Signal;HPM_P1;HPM_P2
2023/12/11 00:00:43;;;;;;;39.00;7.82;;;;;;;8.79;100.00;99913.47;5067417;28;20028;-79
2023/12/11 00:03:08;;;;;;;49.85;9.40;;;;;;;8.76;100.00;99911.09;5066797;28;20051;-80
2023/12/11 00:05:34;;;;;;;40.10;8.93;;;;;;;8.75;100.00;99909.44;5063585;28;20488;-79
2023/12/11 00:07:59;;;;;;;46.40;9.32;;;;;;;8.74;100.00;99907.75;5067069;28;20029;-79
2023/12/11 00:10:25;;;;;;;41.78;8.40;;;;;;;8.72;100.00;99907.06;5060310;28;20032;-79
2023/12/11 00:12:51;;;;;;;45.30;9.80;;;;;;;8.69;100.00;99909.94;5059517;28;20056;-79
2023/12/11 00:15:16;;;;;;;39.67;8.60;;;;;;;8.69;100.00;99914.34;5056218;28;20029;-80
2023/12/11 00:17:41;;;;;;;46.55;9.85;;;;;;;8.62;100.00;99908.78;5075858;28;20229;-80
2023/12/11 00:20:08;;;;;;;47.15;9.65;;;;;;;8.63;100.00;99915.69;5072970;28;20464;-80
2023/12/11 00:22:34;;;;;;;42.47;9.32;;;;;;;8.64;100.00;99911.25;5069003;28;20025;-78
2023/12/11 00:24:59;;;;;;;45.33;9.52;;;;;;;8.65;100.00;99910.31;5063504;28;20027;-78
2023/12/11 00:27:24;;;;;;;44.55;8.38;;;;;;;8.67;100.00;99919.72;5074593;28;20063;-78
2023/12/11 00:29:50;;;;;;;45.17;8.85;;;;;;;8.67;100.00;99911.84;5074044;28;20079;-78
2023/12/11 00:32:15;;;;;;;44.88;9.43;;;;;;;8.65;100.00;99908.53;5075716;28;20086;-79
2023/12/11 00:34:41;;;;;;;44.65;9.35;;;;;;;8.64;100.00;99898.16;5076254;28;20024;-78
2023/12/11 00:37:06;;;;;;;46.00;9.90;;;;;;;8.65;100.00;99903.28;5073496;28;20020;-78
2023/12/11 00:39:32;;;;;;;45.55;10.27;;;;;;;8.64;100.00;99899.00;5072970;28;20028;-79
2023/12/11 00:41:57;;;;;;;48.60;9.27;;;;;;;8.63;100.00;99899.94;5064361;28;20032;-78
2023/12/11 00:44:23;;;;;;;42.13;9.40;;;;;;;8.64;100.00;99904.22;5073474;28;20027;-78
2023/12/11 00:46:48;;;;;;;44.80;9.18;;;;;;;8.64;100.00;99899.00;5075026;28;20093;-78
2023/12/11 00:49:14;;;;;;;43.72;9.00;;;;;;;8.68;100.00;99903.03;5072172;28;20395;-78
2023/12/11 00:51:39;;;;;;;46.63;9.75;;;;;;;8.72;100.00;99896.56;5076449;28;20039;-79
2023/12/11 00:54:04;;;;;;;46.33;10.00;;;;;;;8.76;100.00;99900.59;5069950;28;20055;-78
2023/12/11 00:56:30;;;;;;;47.83;9.57;;;;;;;8.81;100.00;99896.81;5071513;28;20504;-79
2023/12/11 00:58:55;;;;;;;46.75;9.60;;;;;;;8.84;100.00;99886.06;5066225;28;20488;-78
2023/12/11 01:01:21;;;;;;;49.63;9.70;;;;;;;8.84;100.00;99886.06;5072058;28;20128;-78
2023/12/11 01:03:46;;;;;;;54.17;10.15;;;;;;;8.84;100.00;99875.56;5070015;28;20039;-79
2023/12/11 01:06:12;;;;;;;47.95;9.77;;;;;;;8.83;100.00;99879.16;5071473;28;20025;-78
2023/12/11 01:08:38;;;;;;;45.00;9.38;;;;;;;8.86;100.00;99884.13;5072725;28;20035;-78
2023/12/11 01:11:05;;;;;;;49.15;10.18;;;;;;;8.87;100.00;99875.31;5072763;28;20074;-79
2023/12/11 01:13:30;;;;;;;47.08;9.35;;;;;;;8.89;100.00;99881.25;5072425;28;20070;-79
2023/12/11 01:15:56;;;;;;;42.95;8.90;;;;;;;8.90;100.00;99869.81;5062206;28;20052;-80
2023/12/11 01:18:23;;;;;;;53.60;9.95;;;;;;;8.89;100.00;99860.28;5062828;28;20108;-79
2023/12/11 01:20:49;;;;;;;46.40;8.70;;;;;;;8.89;100.00;99855.03;5065193;28;20016;-80
2023/12/11 01:23:14;;;;;;;51.85;9.55;;;;;;;8.89;100.00;99858.47;5073854;28;20082;-79
2023/12/11 01:25:40;;;;;;;51.67;10.20;;;;;;;8.90;100.00;99864.56;5073945;28;20667;-79
2023/12/11 01:28:06;;;;;;;50.00;9.52;;;;;;;8.90;100.00;99870.63;5070258;28;20020;-79
2023/12/11 01:30:31;;;;;;;42.88;8.98;;;;;;;8.90;100.00;99862.78;5069534;28;20110;-79
2023/12/11 01:32:56;;;;;;;47.53;8.90;;;;;;;8.91;100.00;99853.94;5071247;28;20499;-79
2023/12/11 01:35:22;;;;;;;43.13;8.63;;;;;;;8.96;100.00;99854.38;5063775;28;20086;-79
2023/12/11 01:37:47;;;;;;;41.45;8.60;;;;;;;8.98;100.00;99841.13;5060464;28;20033;-79
2023/12/11 01:40:13;;;;;;;40.50;8.65;;;;;;;8.99;100.00;99843.63;5071216;28;20024;-78
2023/12/11 01:42:38;;;;;;;49.45;9.73;;;;;;;8.98;100.00;99835.91;5072078;28;20477;-79
2023/12/11 01:45:04;;;;;;;35.78;8.18;;;;;;;9.02;100.00;99837.28;5071088;28;20056;-79
2023/12/11 01:47:30;;;;;;;37.33;7.78;;;;;;;9.02;100.00;99835.50;5069127;28;20732;-79
2023/12/11 01:49:56;;;;;;;41.28;7.95;;;;;;;9.07;100.00;99841.19;5069069;28;20028;-79
2023/12/11 01:52:22;;;;;;;40.53;8.07;;;;;;;9.10;100.00;99832.22;5068673;28;20149;-79
2023/12/11 01:54:48;;;;;;;36.15;8.00;;;;;;;9.14;100.00;99831.00;5065910;28;20075;-79
2023/12/11 01:57:13;;;;;;;45.53;9.13;;;;;;;9.16;100.00;99823.84;5070347;28;20056;-78
2023/12/11 01:59:39;;;;;;;39.08;7.40;;;;;;;9.17;100.00;99815.00;5071664;28;20137;-79
2023/12/11 02:02:05;;;;;;;39.70;8.60;;;;;;;9.20;100.00;99813.91;5067618;28;20036;-78
2023/12/11 02:04:31;;;;;;;43.22;8.98;;;;;;;9.21;100.00;99811.19;5068947;28;20165;-79
2023/12/11 02:06:58;;;;;;;37.95;7.85;;;;;;;9.22;100.00;99797.09;5069305;28;20511;-79
2023/12/11 02:09:26;;;;;;;40.35;8.00;;;;;;;9.24;100.00;99789.09;5068178;28;20028;-79
2023/12/11 02:11:52;;;;;;;41.08;7.93;;;;;;;9.25;100.00;99796.84;5069629;28;20033;-79
2023/12/11 02:14:17;;;;;;;39.13;8.50;;;;;;;9.24;100.00;99795.19;5059887;28;20085;-79
2023/12/11 02:16:43;;;;;;;42.13;8.80;;;;;;;9.24;100.00;99794.34;5063243;28;20098;-78
2023/12/11 02:19:08;;;;;;;38.42;8.57;;;;;;;9.26;100.00;99802.91;5067867;28;20043;-79
2023/12/11 02:21:34;;;;;;;37.13;7.53;;;;;;;9.24;100.00;99795.19;5068110;28;20025;-78
2023/12/11 02:24:06;;;;;;;47.90;8.82;;;;;;;9.22;100.00;99804.97;5069790;28;20408;-79
2023/12/11 02:26:31;;;;;;;37.17;7.93;;;;;;;9.23;100.00;99803.19;5052327;28;20398;-79
2023/12/11 02:28:59;;;;;;;40.97;8.10;;;;;;;9.23;100.00;99793.53;5063420;28;20021;-79
2023/12/11 02:31:25;;;;;;;39.80;8.05;;;;;;;9.22;100.00;99786.59;5067855;28;20076;-79
2023/12/11 02:33:50;;;;;;;39.22;8.88;;;;;;;9.21;100.00;99792.81;5066442;28;20149;-79
2023/12/11 02:36:16;;;;;;;35.30;7.80;;;;;;;9.20;100.00;99775.38;5068533;28;20027;-78
2023/12/11 02:38:41;;;;;;;40.80;8.88;;;;;;;9.21;100.00;99779.69;5062192;28;20511;-79
2023/12/11 02:41:07;;;;;;;40.65;7.90;;;;;;;9.20;100.00;99778.00;5067260;28;20020;-78
2023/12/11 02:43:33;;;;;;;37.80;8.45;;;;;;;9.22;100.00;99775.28;5067718;28;20046;-77
2023/12/11 02:45:59;;;;;;;33.88;6.95;;;;;;;9.20;100.00;99767.50;5056289;28;20021;-78
2023/12/11 02:48:24;;;;;;;37.05;7.25;;;;;;;9.20;100.00;99764.88;5056459;28;20039;-79
2023/12/11 02:50:50;;;;;;;40.38;7.70;;;;;;;9.22;100.00;99765.59;5069258;28;20043;-79
2023/12/11 02:53:18;;;;;;;32.30;7.13;;;;;;;9.20;100.00;99762.25;5065331;28;20074;-79
2023/12/11 02:55:44;;;;;;;32.42;7.15;;;;;;;9.21;100.00;99753.44;5054852;28;20029;-80
2023/12/11 02:58:09;;;;;;;31.33;7.07;;;;;;;9.20;100.00;99743.06;5065247;28;20108;-80
2023/12/11 03:00:35;;;;;;;33.80;7.05;;;;;;;9.17;100.00;99741.53;5066980;28;20035;-79
2023/12/11 03:03:01;;;;;;;34.40;6.95;;;;;;;9.12;100.00;99735.84;5068534;28;20086;-79
2023/12/11 03:05:26;;;;;;;31.70;6.75;;;;;;;9.08;100.00;99731.81;5068573;28;20021;-77
2023/12/11 03:07:52;;;;;;;28.77;7.00;;;;;;;9.05;100.00;99727.66;5067753;28;20037;-77
2023/12/11 03:10:17;;;;;;;32.83;6.88;;;;;;;9.00;100.00;99729.84;5061958;28;20025;-78
2023/12/11 03:12:43;;;;;;;36.20;7.05;;;;;;;9.01;100.00;99728.06;5058775;28;20036;-78
2023/12/11 03:15:08;;;;;;;34.30;7.32;;;;;;;8.97;100.00;99718.81;5067107;28;20029;-79
2023/12/11 03:17:34;;;;;;;40.47;8.75;;;;;;;8.95;100.00;99718.09;5065991;28;20060;-80
2023/12/11 03:20:00;;;;;;;38.55;8.10;;;;;;;8.95;100.00;99713.69;5067716;28;20056;-79
2023/12/11 03:22:26;;;;;;;34.88;6.93;;;;;;;8.95;100.00;99699.75;5064743;28;20124;-78
2023/12/11 03:24:52;;;;;;;39.40;7.82;;;;;;;8.94;100.00;99706.78;5063056;28;20096;-78
2023/12/11 03:27:20;;;;;;;35.80;7.28;;;;;;;8.92;100.00;99721.00;5051634;28;20243;-78
2023/12/11 03:29:45;;;;;;;34.97;8.02;;;;;;;8.94;100.00;99713.81;5060895;28;20025;-78
2023/12/11 03:32:11;;;;;;;35.85;7.28;;;;;;;8.94;100.00;99713.81;5058824;28;20039;-79
2023/12/11 03:34:36;;;;;;;33.58;7.40;;;;;;;8.94;100.00;99709.41;5064681;28;20137;-78
2023/12/11 03:37:02;;;;;;;32.70;6.90;;;;;;;8.95;100.00;99716.31;5068148;28;20508;-78
2023/12/11 03:39:27;;;;;;;33.25;7.15;;;;;;;8.95;100.00;99708.44;5059320;28;20025;-79
2023/12/11 03:41:54;;;;;;;33.60;6.85;;;;;;;8.94;100.00;99714.66;5066091;28;20028;-79
2023/12/11 03:44:19;;;;;;;28.10;5.82;;;;;;;8.95;100.00;99726.81;5067420;28;20035;-79
2023/12/11 03:46:44;;;;;;;32.28;6.50;;;;;;;8.95;100.00;99718.09;5065251;28;20020;-79
2023/12/11 03:49:10;;;;;;;29.30;6.05;;;;;;;9.00;100.00;99718.53;5066889;28;20141;-78
2023/12/11 03:51:35;;;;;;;25.52;5.90;;;;;;;8.99;100.00;99719.50;5068976;28;20140;-78
2023/12/11 03:54:01;;;;;;;29.50;6.13;;;;;;;8.97;100.00;99713.56;5060529;28;20036;-78
2023/12/11 03:56:27;;;;;;;30.52;6.43;;;;;;;8.94;100.00;99713.81;5066524;28;20039;-78
2023/12/11 03:58:52;;;;;;;25.45;6.10;;;;;;;8.92;100.00;99710.50;5069118;28;20067;-79
2023/12/11 04:01:18;;;;;;;26.83;6.57;;;;;;;8.90;100.00;99707.19;5064839;28;20436;-78
2023/12/11 04:03:43;;;;;;;25.23;6.22;;;;;;;8.89;100.00;99702.88;5069159;28;20041;-78
2023/12/11 04:06:09;;;;;;;29.48;6.05;;;;;;;8.91;100.00;99708.84;5065973;28;20060;-79
2023/12/11 04:08:40;;;;;;;27.50;5.95;;;;;;;8.91;100.00;99708.84;5050154;28;20123;-78
2023/12/11 04:11:07;;;;;;;32.05;6.55;;;;;;;8.92;100.00;99713.13;5062930;28;20028;-78
2023/12/11 04:13:33;;;;;;;27.83;6.03;;;;;;;8.93;100.00;99706.91;5068122;28;20029;-78
2023/12/11 04:15:58;;;;;;;35.38;6.20;;;;;;;8.92;100.00;99706.06;5066207;28;20027;-78
2023/12/11 04:18:23;;;;;;;33.88;6.50;;;;;;;8.90;100.00;99713.25;5067412;28;20024;-78
2023/12/11 04:20:49;;;;;;;39.83;6.72;;;;;;;8.87;100.00;99717.94;5067070;28;20031;-78
2023/12/11 04:23:14;;;;;;;33.13;6.40;;;;;;;8.86;100.00;99721.50;5067675;28;20081;-77
2023/12/11 04:25:40;;;;;;;32.40;6.18;;;;;;;8.83;100.00;99706.03;5056039;28;20048;-77
2023/12/11 04:28:05;;;;;;;34.88;7.05;;;;;;;8.82;100.00;99705.22;5060102;28;20601;-77
2023/12/11 04:30:30;;;;;;;33.42;7.28;;;;;;;8.78;100.00;99699.38;5064449;28;20059;-79
2023/12/11 04:32:56;;;;;;;37.03;6.55;;;;;;;8.77;100.00;99684.59;5068654;28;20047;-79
2023/12/11 04:35:21;;;;;;;37.25;6.25;;;;;;;8.75;100.00;99690.94;5065918;28;20020;-79
2023/12/11 04:37:47;;;;;;;33.42;7.30;;;;;;;8.72;100.00;99684.16;5065348;28;20306;-78
2023/12/11 04:40:12;;;;;;;34.50;7.28;;;;;;;8.70;100.00;99680.84;5055773;28;20028;-78
2023/12/11 04:42:37;;;;;;;44.38;7.88;;;;;;;8.69;100.00;99681.78;5063584;28;20029;-79
2023/12/11 04:45:03;;;;;;;32.50;7.28;;;;;;;8.68;100.00;99688.00;5068033;28;20027;-78
2023/12/11 04:47:28;;;;;;;37.33;7.13;;;;;;;8.67;100.00;99688.97;5066407;28;20085;-79
2023/12/11 04:49:54;;;;;;;40.08;8.30;;;;;;;8.67;100.00;99688.97;5064424;28;20476;-79
2023/12/11 04:52:19;;;;;;;36.00;6.78;;;;;;;8.65;100.00;99687.44;5065306;28;20024;-78
2023/12/11 04:54:45;;;;;;;35.40;7.30;;;;;;;8.63;100.00;99684.09;5066563;28;20063;-78
2023/12/11 04:57:10;;;;;;;38.28;7.55;;;;;;;8.63;100.00;99679.69;5066150;28;20029;-78
2023/12/11 04:59:35;;;;;;;35.50;6.88;;;;;;;8.67;100.00;99685.50;5063185;28;20059;-78
2023/12/11 05:02:01;;;;;;;35.33;7.10;;;;;;;8.65;100.00;99677.78;5060946;28;20025;-78
2023/12/11 05:04:26;;;;;;;42.22;7.43;;;;;;;8.67;100.00;99680.25;5049698;28;20142;-79
2023/12/11 05:06:52;;;;;;;36.85;7.97;;;;;;;8.64;100.00;99677.91;5050710;28;20090;-79
2023/12/11 05:09:18;;;;;;;35.70;6.80;;;;;;;8.64;100.00;99673.50;5067894;28;20104;-79
2023/12/11 05:11:43;;;;;;;34.88;6.90;;;;;;;8.63;100.00;99671.84;5070293;28;20032;-80
2023/12/11 05:14:08;;;;;;;30.88;6.85;;;;;;;8.63;100.00;99687.56;5071223;28;20025;-79
2023/12/11 05:16:34;;;;;;;38.80;7.55;;;;;;;8.63;100.00;99682.31;5069359;28;20705;-79
2023/12/11 05:18:59;;;;;;;35.90;7.55;;;;;;;8.63;100.00;99690.19;5055895;28;20514;-79
2023/12/11 05:21:25;;;;;;;39.22;7.07;;;;;;;8.64;100.00;99686.59;5052035;28;20028;-79
2023/12/11 05:23:52;;;;;;;31.25;7.10;;;;;;;8.63;100.00;99684.94;5076089;28;20104;-79
2023/12/11 05:26:20;;;;;;;42.55;7.30;;;;;;;8.63;100.00;99682.31;5065870;28;20213;-79
2023/12/11 05:28:47;;;;;;;38.88;7.50;;;;;;;8.64;100.00;99685.78;5071474;28;20439;-79
2023/12/11 05:31:13;;;;;;;41.83;7.30;;;;;;;8.67;100.00;99685.50;5066028;28;20040;-79
2023/12/11 05:33:38;;;;;;;40.22;7.40;;;;;;;8.64;100.00;99686.59;5068885;28;20496;-79
2023/12/11 05:36:04;;;;;;;39.83;7.22;;;;;;;8.65;100.00;99680.41;5063536;28;20140;-78
2023/12/11 05:38:29;;;;;;;32.95;7.22;;;;;;;8.68;100.00;99688.00;5056624;28;20028;-79
2023/12/11 05:40:55;;;;;;;34.40;7.13;;;;;;;8.68;100.00;99682.75;5068180;28;20025;-79
2023/12/11 05:43:20;;;;;;;39.67;7.68;;;;;;;8.71;100.00;99682.50;5069257;28;20024;-78
2023/12/11 05:45:46;;;;;;;36.97;7.18;;;;;;;8.70;100.00;99675.59;5069500;28;20106;-79
2023/12/11 05:48:11;;;;;;;30.38;6.80;;;;;;;8.74;100.00;99676.16;5061061;28;20032;-79
2023/12/11 05:50:37;;;;;;;39.85;7.30;;;;;;;8.74;100.00;99677.00;5068012;28;20477;-79
2023/12/11 05:53:02;;;;;;;33.35;6.57;;;;;;;8.76;100.00;99680.31;5067834;28;20067;-79
2023/12/11 05:55:31;;;;;;;33.58;6.47;;;;;;;8.76;100.00;99680.31;5066408;28;20060;-79
2023/12/11 05:57:56;;;;;;;36.97;6.95;;;;;;;8.77;100.00;99671.47;5066239;28;20074;-79
2023/12/11 06:00:22;;;;;;;30.00;6.35;;;;;;;8.76;100.00;99675.06;5064576;28;20036;-78
2023/12/11 06:02:47;;;;;;;34.88;6.40;;;;;;;8.76;100.00;99667.19;5064060;28;20495;-79
2023/12/11 06:05:13;;;;;;;30.45;6.75;;;;;;;8.77;100.00;99676.72;5065288;28;20059;-77
2023/12/11 06:07:38;;;;;;;32.17;6.65;;;;;;;8.76;100.00;99669.81;5061258;28;20499;-77
2023/12/11 06:10:05;;;;;;;34.95;6.78;;;;;;;8.75;100.00;99670.78;5064514;28;20033;-77
2023/12/11 06:12:31;;;;;;;28.88;6.57;;;;;;;8.76;100.00;99682.09;5067261;28;20037;-78
2023/12/11 06:15:00;;;;;;;30.75;7.50;;;;;;;8.75;100.00;99678.66;5068466;28;20388;-79
2023/12/11 06:17:25;;;;;;;35.97;7.05;;;;;;;8.74;100.00;99682.22;5068122;28;20028;-78
2023/12/11 06:19:51;;;;;;;37.85;7.45;;;;;;;8.73;100.00;99683.19;5068905;28;20028;-78
2023/12/11 06:22:16;;;;;;;33.30;6.88;;;;;;;8.73;100.00;99698.09;5068158;28;20325;-78
2023/12/11 06:24:42;;;;;;;35.33;7.28;;;;;;;8.71;100.00;99694.78;5068999;28;20115;-76
2023/12/11 06:27:08;;;;;;;30.73;6.78;;;;;;;8.70;100.00;99693.94;5056335;28;20029;-78
2023/12/11 06:29:34;;;;;;;37.70;8.05;;;;;;;8.69;100.00;99689.66;5050179;28;20390;-79
2023/12/11 06:31:59;;;;;;;38.22;7.95;;;;;;;8.69;100.00;99680.97;5067114;28;20028;-78
2023/12/11 06:34:25;;;;;;;32.97;6.38;;;;;;;8.68;100.00;99688.00;5066956;28;20032;-78
2023/12/11 06:36:50;;;;;;;35.85;7.05;;;;;;;8.69;100.00;99688.84;5086951;28;20388;-79
2023/12/11 06:39:16;;;;;;;35.65;6.85;;;;;;;8.69;100.00;99688.84;5070295;28;20020;-79
2023/12/11 06:41:41;;;;;;;34.17;7.15;;;;;;;8.69;100.00;99686.22;5060036;28;20029;-79
2023/12/11 06:44:08;;;;;;;33.28;7.30;;;;;;;8.69;100.00;99692.28;5065549;28;20024;-79
2023/12/11 06:46:34;;;;;;;31.80;6.25;;;;;;;8.70;100.00;99685.25;5068087;28;20032;-79
2023/12/11 06:49:00;;;;;;;30.05;6.63;;;;;;;8.70;100.00;99686.06;5069383;28;20362;-80
2023/12/11 06:51:25;;;;;;;37.00;7.82;;;;;;;8.72;100.00;99694.66;5066908;28;20124;-79
2023/12/11 06:53:51;;;;;;;37.40;7.30;;;;;;;8.70;100.00;99707.06;5069515;28;20449;-79
2023/12/11 06:56:20;;;;;;;35.72;7.13;;;;;;;8.67;100.00;99707.31;5069273;28;20031;-79
2023/12/11 06:58:46;;;;;;;31.77;6.57;;;;;;;8.67;100.00;99694.22;5061576;28;20020;-79
2023/12/11 07:01:12;;;;;;;31.50;6.68;;;;;;;8.66;100.00;99705.66;5053313;28;20692;-79
2023/12/11 07:03:40;;;;;;;37.88;6.85;;;;;;;8.69;100.00;99720.28;5067270;28;20115;-78
2023/12/11 07:06:05;;;;;;;31.95;6.47;;;;;;;8.71;100.00;99703.47;5069066;28;20028;-78
2023/12/11 07:08:31;;;;;;;26.77;5.95;;;;;;;8.72;100.00;99715.63;5067962;28;20024;-78
2023/12/11 07:10:56;;;;;;;28.45;5.50;;;;;;;8.72;100.00;99725.28;5069061;28;20055;-78
2023/12/11 07:13:21;;;;;;;25.42;5.40;;;;;;;8.75;100.00;99704.03;5061079;28;20505;-80
2023/12/11 07:15:47;;;;;;;26.73;5.20;;;;;;;8.75;100.00;99720.59;5064246;28;20028;-80
2023/12/11 07:18:13;;;;;;;24.33;5.65;;;;;;;8.79;100.00;99716.75;5067414;28;20035;-80
2023/12/11 07:20:41;;;;;;;30.98;5.95;;;;;;;8.79;100.00;99722.00;5068051;28;20056;-79
2023/12/11 07:23:07;;;;;;;23.98;4.95;;;;;;;8.82;100.00;99720.94;5066032;28;20111;-79
2023/12/11 07:25:35;;;;;;;26.75;5.75;;;;;;;8.83;100.00;99737.50;5065751;28;20028;-79
2023/12/11 07:28:00;;;;;;;28.48;6.25;;;;;;;8.82;100.00;99735.84;5064530;28;20453;-79
2023/12/11 07:30:27;;;;;;;28.17;6.13;;;;;;;8.81;100.00;99736.81;5062890;28;20036;-78
2023/12/11 07:32:52;;;;;;;25.30;5.00;;;;;;;8.81;100.00;99745.50;5059319;28;20044;-80
2023/12/11 07:35:18;;;;;;;24.77;5.25;;;;;;;8.81;100.00;99749.94;5048626;28;20303;-79
2023/12/11 07:37:43;;;;;;;23.23;5.38;;;;;;;8.81;100.00;99760.41;5052334;28;20028;-79
2023/12/11 07:40:10;;;;;;;25.27;5.38;;;;;;;8.77;100.00;99765.88;5058981;28;20032;-77
2023/12/11 07:42:35;;;;;;;27.63;5.82;;;;;;;8.73;100.00;99763.66;5051548;28;20812;-78
2023/12/11 07:45:04;;;;;;;25.25;5.15;;;;;;;8.68;100.00;99787.66;5065003;28;20027;-78
2023/12/11 07:47:33;;;;;;;25.23;5.63;;;;;;;8.67;100.00;99780.72;5068543;28;20453;-79
2023/12/11 07:50:00;;;;;;;29.52;6.07;;;;;;;8.62;100.00;99795.19;5068962;28;20025;-78
2023/12/11 07:52:30;;;;;;;27.58;5.30;;;;;;;8.59;100.00;99790.19;5068752;28;20082;-79
2023/12/11 07:54:56;;;;;;;22.50;4.60;;;;;;;8.59;100.00;99791.03;5070280;28;20028;-78
2023/12/11 07:57:24;;;;;;;26.55;4.95;;;;;;;8.55;100.00;99800.13;5068876;28;20032;-79
2023/12/11 07:59:49;;;;;;;25.23;5.60;;;;;;;8.54;100.00;99798.44;5067105;28;20465;-78
2023/12/11 08:02:17;;;;;;;25.92;4.82;;;;;;;8.55;100.00;99801.91;5062361;28;20083;-78
2023/12/11 08:04:43;;;;;;;24.40;5.35;;;;;;;8.52;100.00;99805.59;5066991;28;20063;-78
2023/12/11 08:07:09;;;;;;;24.13;5.03;;;;;;;8.53;100.00;99809.91;5066660;28;20111;-78
2023/12/11 08:09:39;;;;;;;22.83;4.70;;;;;;;8.53;100.00;99820.38;5065871;28;20043;-78
2023/12/11 08:12:05;;;;;;;28.90;5.22;;;;;;;8.55;100.00;99818.47;5067406;28;20081;-78
2023/12/11 08:14:30;;;;;;;21.70;4.50;;;;;;;8.58;100.00;99812.97;5065190;28;20597;-79
2023/12/11 08:16:56;;;;;;;23.20;5.43;;;;;;;8.57;100.00;99827.03;5063942;28;20033;-78
2023/12/11 08:19:21;;;;;;;22.40;4.65;;;;;;;8.59;100.00;99835.59;5067483;28;20428;-79
2023/12/11 08:21:46;;;;;;;25.95;5.28;;;;;;;8.59;100.00;99824.28;5068095;28;20194;-79
2023/12/11 08:24:12;;;;;;;25.85;4.50;;;;;;;8.59;100.00;99832.97;5064834;28;20031;-79
2023/12/11 08:26:38;;;;;;;19.15;4.40;;;;;;;8.63;100.00;99841.44;5064835;28;20074;-79
2023/12/11 08:29:03;;;;;;;22.20;4.63;;;;;;;8.64;100.00;99838.69;5067129;28;20512;-79
2023/12/11 08:31:29;;;;;;;24.45;4.55;;;;;;;8.67;100.00;99848.91;5066129;28;20040;-79
2023/12/11 08:33:54;;;;;;;24.15;4.88;;;;;;;8.73;100.00;99847.56;5067040;28;20464;-79
2023/12/11 08:36:21;;;;;;;21.52;4.93;;;;;;;8.77;100.00;99859.47;5064233;28;20025;-79
2023/12/11 08:38:47;;;;;;;22.80;4.50;;;;;;;8.81;100.00;99852.22;5071805;28;20055;-79
2023/12/11 08:41:12;;;;;;;21.75;5.13;;;;;;;8.83;100.00;99864.25;5065211;28;20032;-79
2023/12/11 08:43:38;;;;;;;21.40;4.60;;;;;;;8.85;100.00;99874.59;5071650;28;20423;-80
2023/12/11 08:46:03;;;;;;;22.00;4.22;;;;;;;8.88;100.00;99877.81;5072804;28;20028;-80
2023/12/11 08:48:29;;;;;;;17.85;4.40;;;;;;;8.89;100.00;99886.50;5072058;28;20376;-80
2023/12/11 08:50:54;;;;;;;24.30;4.75;;;;;;;8.90;100.00;99890.78;5073210;28;20392;-81
2023/12/11 08:53:20;;;;;;;20.13;4.95;;;;;;;8.88;100.00;99895.34;5072322;28;20104;-82
2023/12/11 08:55:46;;;;;;;24.30;4.85;;;;;;;8.88;100.00;99897.97;5080424;28;20028;-80
2023/12/11 08:58:12;;;;;;;27.23;4.72;;;;;;;8.87;100.00;99912.03;5076434;28;20093;-79
2023/12/11 09:00:37;;;;;;;27.67;4.85;;;;;;;8.84;100.00;99928.84;5060219;28;20025;-79
2023/12/11 09:03:03;;;;;;;21.67;4.38;;;;;;;8.79;100.00;99934.44;5066403;28;20162;-79
2023/12/11 09:05:28;;;;;;;20.95;4.65;;;;;;;8.75;100.00;99948.78;5071170;28;20137;-78
2023/12/11 09:07:55;;;;;;;21.23;4.78;;;;;;;8.71;100.00;99951.75;5071794;28;20032;-80
2023/12/11 09:10:20;;;;;;;22.45;4.85;;;;;;;8.63;100.00;99967.28;5068128;28;20024;-80
2023/12/11 09:12:46;;;;;;;24.05;4.82;;;;;;;8.58;100.00;99962.41;5071418;28;20499;-81
2023/12/11 09:15:12;;;;;;;22.67;4.70;;;;;;;8.55;100.00;99943.47;5071976;28;20024;-81
2023/12/11 09:17:37;;;;;;;22.38;5.18;;;;;;;8.54;100.00;99958.38;5069605;28;20515;-81
2023/12/11 09:20:04;;;;;;;16.98;3.15;;;;;;;8.52;100.00;99959.44;5070265;28;20484;-80
2023/12/11 09:22:30;;;;;;;21.00;4.43;;;;;;;8.52;100.00;99967.31;5069595;28;20095;-81
2023/12/11 09:24:55;;;;;;;21.00;4.07;;;;;;;8.51;100.00;99971.72;5068781;28;20377;-80
2023/12/11 09:27:21;;;;;;;22.33;4.60;;;;;;;8.53;100.00;99969.81;5070225;28;20464;-78
2023/12/11 09:29:48;;;;;;;16.17;4.00;;;;;;;8.53;100.00;99976.84;5071124;28;20035;-79
2023/12/11 09:32:15;;;;;;;15.02;3.38;;;;;;;8.52;100.00;99983.88;5065578;28;20113;-79
2023/12/11 09:34:41;;;;;;;12.60;3.10;;;;;;;8.52;100.00;99996.16;5058535;28;20110;-79
2023/12/11 09:37:07;;;;;;;13.07;2.85;;;;;;;8.51;100.00;99995.31;5065608;28;20025;-79
2023/12/11 09:39:32;;;;;;;14.88;3.35;;;;;;;8.56;100.00;100006.28;5068976;28;20035;-79
2023/12/11 09:42:00;;;;;;;13.93;3.28;;;;;;;8.63;100.00;99991.72;5069874;28;20067;-79
2023/12/11 09:44:27;;;;;;;15.82;3.45;;;;;;;8.67;100.00;100015.91;5069614;28;20024;-79
2023/12/11 09:47:13;;;;;;;20.67;3.35;;;;;;;8.70;100.00;100021.75;5070599;28;20070;-80
2023/12/11 09:49:38;;;;;;;16.50;4.10;;;;;;;8.74;100.00;100023.16;5061933;28;20187;-80
2023/12/11 09:52:04;;;;;;;16.85;4.15;;;;;;;8.79;100.00;100023.63;5054915;28;20504;-79
2023/12/11 09:54:29;;;;;;;17.50;3.67;;;;;;;8.84;100.00;100032.94;5070555;28;20031;-80
2023/12/11 09:57:00;;;;;;;18.88;3.70;;;;;;;8.88;100.00;100036.97;5070921;28;20027;-80
2023/12/11 09:59:27;;;;;;;19.30;4.10;;;;;;;8.95;100.00;100046.03;5070706;28;20028;-80
2023/12/11 10:01:54;;;;;;;15.52;3.72;;;;;;;9.00;100.00;100049.13;5070370;28;20032;-79
2023/12/11 10:04:19;;;;;;;17.60;3.90;;;;;;;9.04;100.00;100048.75;5067941;28;20089;-79
2023/12/11 10:06:44;;;;;;;19.67;4.07;;;;;;;9.07;100.00;100058.16;5057060;28;20063;-81
2023/12/11 10:09:26;;;;;;;16.58;3.97;;;;;;;9.11;100.00;100046.44;5071241;28;20173;-79
2023/12/11 10:12:02;;;;;;;14.70;3.55;;;;;;;9.11;100.00;100055.16;5067962;28;20082;-80
2023/12/11 10:14:30;;;;;;;16.10;3.70;;;;;;;9.15;100.00;100068.03;5059546;28;20470;-80
2023/12/11 10:16:55;;;;;;;14.30;3.42;;;;;;;9.18;100.00;100073.88;5067348;28;20100;-80
2023/12/11 10:19:31;;;;;;;18.13;3.67;;;;;;;9.25;100.00;100064.56;5070006;28;20021;-81
2023/12/11 10:21:58;;;;;;;17.00;3.17;;;;;;;9.26;100.00;100071.47;5066240;28;20138;-80
2023/12/11 10:24:24;;;;;;;12.32;3.20;;;;;;;9.28;100.00;100082.69;5059590;28;20044;-79
2023/12/11 10:26:55;;;;;;;13.27;3.15;;;;;;;9.28;100.00;100082.69;5077950;28;20029;-80
2023/12/11 10:29:31;;;;;;;13.00;3.08;;;;;;;9.29;100.00;100092.22;5066732;28;20042;-81
2023/12/11 10:32:01;;;;;;;14.18;3.25;;;;;;;9.25;100.00;100093.44;5070455;28;20066;-80
2023/12/11 10:34:43;;;;;;;13.23;2.92;;;;;;;9.27;100.00;100099.41;5069672;28;20094;-82
2023/12/11 10:37:18;;;;;;;14.27;3.45;;;;;;;9.21;100.00;100106.94;5052089;28;20119;-80
2023/12/11 10:39:56;;;;;;;11.80;3.08;;;;;;;9.25;100.00;100103.94;5065576;28;20024;-81
2023/12/11 10:42:23;;;;;;;12.60;2.97;;;;;;;9.23;100.00;100105.00;5068478;28;20128;-80
2023/12/11 10:44:49;;;;;;;15.38;3.75;;;;;;;9.21;100.00;100113.00;5067851;28;20074;-80
2023/12/11 10:47:18;;;;;;;14.25;3.42;;;;;;;9.27;100.00;100120.41;5068302;28;20024;-81
2023/12/11 10:49:44;;;;;;;12.07;3.47;;;;;;;9.33;100.00;100113.81;5067197;28;20396;-80
2023/12/11 10:52:10;;;;;;;15.07;3.60;;;;;;;9.39;100.00;100124.66;5068793;28;20016;-80
2023/12/11 10:54:37;;;;;;;13.23;3.20;;;;;;;9.47;100.00;100123.19;5069748;28;20035;-80
2023/12/11 10:57:05;;;;;;;14.93;3.55;;;;;;;9.50;100.00;100134.28;5068411;28;20024;-81
2023/12/11 10:59:31;;;;;;;13.63;3.22;;;;;;;9.54;100.00;100140.13;5069727;28;20025;-81
2023/12/11 11:01:59;;;;;;;19.77;4.07;;;;;;;9.55;100.00;100144.41;5067686;28;20086;-80
2023/12/11 11:04:27;;;;;;;12.82;2.75;;;;;;;9.56;100.00;100141.66;5067426;28;20024;-81
2023/12/11 11:07:23;;;;;;;14.63;2.97;;;;;;;9.63;100.00;100147.28;5069973;28;20083;-80
2023/12/11 11:10:23;;;;;;;11.88;2.92;;;;;;;9.64;100.00;100141.91;5068649;28;20123;-81
2023/12/11 11:13:15;;;;;;;15.60;3.33;;;;;;;9.68;100.00;100153.81;5052317;28;20476;-81
2023/12/11 11:15:41;;;;;;;12.10;2.70;;;;;;;9.70;100.00;100151.91;5063330;28;20039;-82
2023/12/11 11:18:09;;;;;;;12.10;3.00;;;;;;;9.70;100.00;100164.19;5064102;28;20024;-81
2023/12/11 11:20:38;;;;;;;12.02;2.72;;;;;;;9.65;100.00;100166.38;5069492;28;20032;-81